sensor_id;sensor_type;location;lat;lon;timestamp;pressure;altitude;pressure_sealevel;temperature;humidity
39363;BME280;25088;43.238;23.110;2022-12-07T00:01:18;96511.88;;;4.38;100.00
39363;BME280;25088;43.238;23.110;2022-12-07T00:03:45;96509.09;;;4.51;100.00
39363;BME280;25088;43.238;23.110;2022-12-07T00:06:14;96525.88;;;4.60;100.00
39363;BME280;25088;43.238;23.110;2022-12-07T00:08:40;96512.94;;;4.69;100.00
39363;BME280;25088;43.238;23.110;2022-12-07T00:11:10;96496.25;;;4.72;100.00
39363;BME280;25088;43.238;23.110;2022-12-07T00:13:37;96502.00;;;4.82;100.00
39363;BME280;25088;43.238;23.110;2022-12-07T00:16:07;96493.84;;;4.88;100.00
39363;BME280;25088;43.238;23.110;2022-12-07T00:18:34;96493.44;;;4.85;100.00
39363;BME280;25088;43.238;23.110;2022-12-07T00:21:04;96483.63;;;4.90;100.00
39363;BME280;25088;43.238;23.110;2022-12-07T00:23:30;96491.88;;;5.02;100.00
39363;BME280;25088;43.238;23.110;2022-12-07T00:25:56;96479.03;;;4.91;100.00
39363;BME280;25088;43.238;23.110;2022-12-07T00:28:21;96493.88;;;5.07;100.00
39363;BME280;25088;43.238;23.110;2022-12-07T00:30:47;96498.47;;;5.06;100.00
39363;BME280;25088;43.238;23.110;2022-12-07T00:33:12;96485.44;;;4.97;100.00
39363;BME280;25088;43.238;23.110;2022-12-07T00:35:37;96504.69;;;5.07;100.00
39363;BME280;25088;43.238;23.110;2022-12-07T00:38:03;96509.34;;;5.00;100.00
39363;BME280;25088;43.238;23.110;2022-12-07T00:40:28;96512.13;;;4.93;100.00
39363;BME280;25088;43.238;23.110;2022-12-07T00:42:54;96505.91;;;4.86;100.00
39363;BME280;25088;43.238;23.110;2022-12-07T00:45:19;96509.56;;;4.73;100.00
39363;BME280;25088;43.238;23.110;2022-12-07T00:47:45;96497.06;;;4.72;100.00
39363;BME280;25088;43.238;23.110;2022-12-07T00:50:10;96501.66;;;4.72;100.00
39363;BME280;25088;43.238;23.110;2022-12-07T00:52:36;96502.28;;;4.74;100.00
39363;BME280;25088;43.238;23.110;2022-12-07T00:55:01;96508.47;;;4.81;100.00
39363;BME280;25088;43.238;23.110;2022-12-07T00:57:27;96477.72;;;4.75;100.00
39363;BME280;25088;43.238;23.110;2022-12-07T00:59:52;96495.44;;;4.96;100.00
39363;BME280;25088;43.238;23.110;2022-12-07T01:02:21;96480.41;;;4.75;100.00
39363;BME280;25088;43.238;23.110;2022-12-07T01:04:47;96500.69;;;4.91;100.00
39363;BME280;25088;43.238;23.110;2022-12-07T01:07:12;96502.94;;;4.94;100.00
39363;BME280;25088;43.238;23.110;2022-12-07T01:09:38;96500.84;;;4.96;100.00
39363;BME280;25088;43.238;23.110;2022-12-07T01:12:03;96499.78;;;4.97;100.00
39363;BME280;25088;43.238;23.110;2022-12-07T01:14:29;96495.44;;;4.96;100.00
39363;BME280;25088;43.238;23.110;2022-12-07T01:16:54;96504.94;;;5.05;100.00
39363;BME280;25088;43.238;23.110;2022-12-07T01:19:20;96485.66;;;4.95;100.00
39363;BME280;25088;43.238;23.110;2022-12-07T01:21:45;96501.34;;;5.11;100.00
39363;BME280;25088;43.238;23.110;2022-12-07T01:24:11;96474.94;;;4.82;100.00
39363;BME280;25088;43.238;23.110;2022-12-07T01:26:36;96513.28;;;5.04;100.00
39363;BME280;25088;43.238;23.110;2022-12-07T01:29:02;96500.31;;;4.87;100.00
39363;BME280;25088;43.238;23.110;2022-12-07T01:31:28;96517.88;;;5.03;100.00
39363;BME280;25088;43.238;23.110;2022-12-07T01:33:56;96513.31;;;4.97;100.00
39363;BME280;25088;43.238;23.110;2022-12-07T01:36:41;96510.59;;;4.97;100.00
39363;BME280;25088;43.238;23.110;2022-12-07T01:39:07;96507.72;;;4.99;100.00
39363;BME280;25088;43.238;23.110;2022-12-07T01:41:36;96512.56;;;4.90;100.00
39363;BME280;25088;43.238;23.110;2022-12-07T01:44:19;96514.03;;;4.86;100.00
39363;BME280;25088;43.238;23.110;2022-12-07T01:46:59;96484.25;;;4.68;100.00
39363;BME280;25088;43.238;23.110;2022-12-07T01:49:46;96489.13;;;4.77;100.00
39363;BME280;25088;43.238;23.110;2022-12-07T01:54:46;96496.78;;;4.55;100.00
39363;BME280;25088;43.238;23.110;2022-12-07T01:57:14;96488.50;;;4.50;100.00
39363;BME280;25088;43.238;23.110;2022-12-07T01:59:42;96495.31;;;4.59;100.00
39363;BME280;25088;43.238;23.110;2022-12-07T02:02:16;96496.97;;;4.60;100.00
39363;BME280;25088;43.238;23.110;2022-12-07T02:04:43;96490.38;;;4.50;100.00
39363;BME280;25088;43.238;23.110;2022-12-07T02:07:09;96484.31;;;4.54;100.00
39363;BME280;25088;43.238;23.110;2022-12-07T02:09:34;96480.16;;;4.52;100.00
39363;BME280;25088;43.238;23.110;2022-12-07T02:12:00;96475.41;;;4.47;100.00
39363;BME280;25088;43.238;23.110;2022-12-07T02:14:26;96447.88;;;4.32;100.00
39363;BME280;25088;43.238;23.110;2022-12-07T02:17:01;96471.22;;;4.58;100.00
39363;BME280;25088;43.238;23.110;2022-12-07T02:19:51;96465.28;;;4.43;100.00
39363;BME280;25088;43.238;23.110;2022-12-07T02:22:54;96453.44;;;4.37;100.00
39363;BME280;25088;43.238;23.110;2022-12-07T02:30:54;96452.44;;;4.31;100.00
39363;BME280;25088;43.238;23.110;2022-12-07T02:33:29;96444.41;;;4.25;100.00
39363;BME280;25088;43.238;23.110;2022-12-07T02:36:06;96452.84;;;4.35;100.00
39363;BME280;25088;43.238;23.110;2022-12-07T02:38:39;96451.38;;;4.39;100.00
39363;BME280;25088;43.238;23.110;2022-12-07T02:41:12;96441.63;;;4.38;100.00
39363;BME280;25088;43.238;23.110;2022-12-07T02:43:45;96449.41;;;4.53;100.00
39363;BME280;25088;43.238;23.110;2022-12-07T02:46:23;96434.94;;;4.65;100.00
39363;BME280;25088;43.238;23.110;2022-12-07T02:48:51;96429.75;;;4.64;100.00
39363;BME280;25088;43.238;23.110;2022-12-07T02:51:18;96419.72;;;4.71;100.00
39363;BME280;25088;43.238;23.110;2022-12-07T02:53:44;96417.22;;;4.70;100.00
39363;BME280;25088;43.238;23.110;2022-12-07T02:56:36;96411.34;;;4.54;100.00
39363;BME280;25088;43.238;23.110;2022-12-07T03:08:08;96400.91;;;4.58;100.00
39363;BME280;25088;43.238;23.110;2022-12-07T03:10:48;96408.72;;;4.66;100.00
39363;BME280;25088;43.238;23.110;2022-12-07T03:18:49;96407.63;;;4.74;100.00
39363;BME280;25088;43.238;23.110;2022-12-07T03:21:19;96410.59;;;4.65;100.00
39363;BME280;25088;43.238;23.110;2022-12-07T03:23:51;96385.28;;;4.60;100.00
39363;BME280;25088;43.238;23.110;2022-12-07T03:26:19;96409.38;;;4.61;100.00
39363;BME280;25088;43.238;23.110;2022-12-07T03:28:51;96420.09;;;4.75;100.00
39363;BME280;25088;43.238;23.110;2022-12-07T03:31:46;96420.41;;;4.85;100.00
39363;BME280;25088;43.238;23.110;2022-12-07T03:35:12;96429.34;;;4.85;100.00
39363;BME280;25088;43.238;23.110;2022-12-07T03:37:37;96425.50;;;4.75;100.00
39363;BME280;25088;43.238;23.110;2022-12-07T03:40:25;96425.66;;;4.80;100.00
39363;BME280;25088;43.238;23.110;2022-12-07T03:42:52;96420.41;;;4.85;100.00
39363;BME280;25088;43.238;23.110;2022-12-07T03:45:20;96416.47;;;4.87;100.00
39363;BME280;25088;43.238;23.110;2022-12-07T03:47:58;96411.41;;;4.73;100.00
39363;BME280;25088;43.238;23.110;2022-12-07T03:50:38;96427.13;;;4.82;100.00
39363;BME280;25088;43.238;23.110;2022-12-07T03:53:12;96424.91;;;4.73;100.00
39363;BME280;25088;43.238;23.110;2022-12-07T03:55:42;96430.19;;;4.61;100.00
39363;BME280;25088;43.238;23.110;2022-12-07T03:58:11;96434.34;;;4.63;100.00
39363;BME280;25088;43.238;23.110;2022-12-07T04:00:38;96431.81;;;4.69;100.00
39363;BME280;25088;43.238;23.110;2022-12-07T04:03:03;96422.72;;;4.63;100.00
39363;BME280;25088;43.238;23.110;2022-12-07T04:05:29;96411.44;;;4.41;100.00
39363;BME280;25088;43.238;23.110;2022-12-07T04:07:55;96430.69;;;4.51;100.00
39363;BME280;25088;43.238;23.110;2022-12-07T04:10:20;96410.78;;;4.46;100.00
39363;BME280;25088;43.238;23.110;2022-12-07T04:12:46;96410.88;;;4.57;100.00
39363;BME280;25088;43.238;23.110;2022-12-07T04:15:12;96403.13;;;4.43;100.00
39363;BME280;25088;43.238;23.110;2022-12-07T04:17:37;96392.41;;;4.54;100.00
39363;BME280;25088;43.238;23.110;2022-12-07T04:20:04;96401.13;;;4.56;100.00
39363;BME280;25088;43.238;23.110;2022-12-07T04:22:30;96382.41;;;4.55;100.00
39363;BME280;25088;43.238;23.110;2022-12-07T04:24:56;96356.97;;;4.37;100.00
39363;BME280;25088;43.238;23.110;2022-12-07T04:27:21;96401.59;;;4.72;100.00
39363;BME280;25088;43.238;23.110;2022-12-07T04:29:47;96388.53;;;4.69;100.00
39363;BME280;25088;43.238;23.110;2022-12-07T04:32:12;96375.13;;;4.55;100.00
39363;BME280;25088;43.238;23.110;2022-12-07T04:34:38;96399.59;;;4.85;100.00
39363;BME280;25088;43.238;23.110;2022-12-07T04:37:03;96393.22;;;4.80;100.00
39363;BME280;25088;43.238;23.110;2022-12-07T04:39:30;96386.66;;;4.69;100.00
39363;BME280;25088;43.238;23.110;2022-12-07T04:41:57;96295.53;;;4.08;100.00
39363;BME280;25088;43.238;23.110;2022-12-07T04:44:24;96389.63;;;4.61;100.00
39363;BME280;25088;43.238;23.110;2022-12-07T04:46:50;96379.63;;;4.43;100.00
39363;BME280;25088;43.238;23.110;2022-12-07T04:49:16;96380.47;;;4.37;100.00
39363;BME280;25088;43.238;23.110;2022-12-07T04:51:42;96344.69;;;4.17;100.00
39363;BME280;25088;43.238;23.110;2022-12-07T04:54:08;96365.72;;;4.39;100.00
39363;BME280;25088;43.238;23.110;2022-12-07T04:56:34;96377.25;;;4.28;100.00
39363;BME280;25088;43.238;23.110;2022-12-07T04:59:01;96338.78;;;4.01;100.00
39363;BME280;25088;43.238;23.110;2022-12-07T05:01:26;96365.69;;;4.14;100.00
39363;BME280;25088;43.238;23.110;2022-12-07T05:03:52;96289.56;;;3.68;100.00
39363;BME280;25088;43.238;23.110;2022-12-07T05:06:18;96362.81;;;4.09;100.00
39363;BME280;25088;43.238;23.110;2022-12-07T05:08:44;96341.94;;;3.98;100.00
39363;BME280;25088;43.238;23.110;2022-12-07T05:11:10;96354.91;;;4.14;100.00
39363;BME280;25088;43.238;23.110;2022-12-07T05:13:59;96362.53;;;4.18;100.00
39363;BME280;25088;43.238;23.110;2022-12-07T05:16:26;96355.72;;;4.15;100.00
39363;BME280;25088;43.238;23.110;2022-12-07T05:18:51;96306.47;;;3.88;100.00
39363;BME280;25088;43.238;23.110;2022-12-07T05:21:17;96335.72;;;4.23;100.00
39363;BME280;25088;43.238;23.110;2022-12-07T05:23:42;96355.72;;;4.40;100.00
39363;BME280;25088;43.238;23.110;2022-12-07T05:26:08;96343.13;;;4.52;100.00
39363;BME280;25088;43.238;23.110;2022-12-07T05:28:33;96343.75;;;4.54;100.00
39363;BME280;25088;43.238;23.110;2022-12-07T05:30:58;96343.28;;;4.57;100.00
39363;BME280;25088;43.238;23.110;2022-12-07T05:33:24;96351.59;;;4.62;100.00
39363;BME280;25088;43.238;23.110;2022-12-07T05:35:49;96350.53;;;4.63;100.00
39363;BME280;25088;43.238;23.110;2022-12-07T05:38:15;96347.09;;;4.75;100.00
39363;BME280;25088;43.238;23.110;2022-12-07T05:40:40;96349.66;;;4.88;100.00
39363;BME280;25088;43.238;23.110;2022-12-07T05:43:06;96353.53;;;4.92;100.00
39363;BME280;25088;43.238;23.110;2022-12-07T05:45:31;96349.44;;;4.89;100.00
39363;BME280;25088;43.238;23.110;2022-12-07T05:47:57;96334.16;;;4.77;100.00
39363;BME280;25088;43.238;23.110;2022-12-07T05:50:22;96341.69;;;4.75;100.00
39363;BME280;25088;43.238;23.110;2022-12-07T05:52:48;96350.19;;;4.78;100.00
39363;BME280;25088;43.238;23.110;2022-12-07T05:55:13;96353.19;;;4.88;100.00
39363;BME280;25088;43.238;23.110;2022-12-07T05:57:38;96354.56;;;4.98;100.00
39363;BME280;25088;43.238;23.110;2022-12-07T06:00:04;96298.91;;;4.65;100.00
39363;BME280;25088;43.238;23.110;2022-12-07T06:02:30;96355.22;;;4.93;100.00
39363;BME280;25088;43.238;23.110;2022-12-07T06:04:55;96358.28;;;4.97;100.00
39363;BME280;25088;43.238;23.110;2022-12-07T06:07:21;96341.84;;;4.80;100.00
39363;BME280;25088;43.238;23.110;2022-12-07T06:09:46;96366.19;;;4.98;100.00
39363;BME280;25088;43.238;23.110;2022-12-07T06:12:13;96345.50;;;4.85;100.00
39363;BME280;25088;43.238;23.110;2022-12-07T06:15:01;96380.41;;;4.93;100.00
39363;BME280;25088;43.238;23.110;2022-12-07T06:17:27;96366.47;;;4.90;100.00
39363;BME280;25088;43.238;23.110;2022-12-07T06:19:53;96365.22;;;4.92;100.00
39363;BME280;25088;43.238;23.110;2022-12-07T06:22:18;96373.69;;;4.96;100.00
39363;BME280;25088;43.238;23.110;2022-12-07T06:24:44;96374.22;;;5.05;100.00
39363;BME280;25088;43.238;23.110;2022-12-07T06:27:09;96371.97;;;5.02;100.00
39363;BME280;25088;43.238;23.110;2022-12-07T06:29:35;96380.19;;;5.13;100.00
39363;BME280;25088;43.238;23.110;2022-12-07T06:32:00;96374.63;;;5.08;100.00
39363;BME280;25088;43.238;23.110;2022-12-07T06:34:27;96381.84;;;5.14;100.00
39363;BME280;25088;43.238;23.110;2022-12-07T06:36:53;96383.88;;;5.19;100.00
39363;BME280;25088;43.238;23.110;2022-12-07T06:39:27;96393.56;;;5.27;100.00
39363;BME280;25088;43.238;23.110;2022-12-07T06:41:53;96396.97;;;5.22;100.00
39363;BME280;25088;43.238;23.110;2022-12-07T06:44:19;96381.00;;;5.14;100.00
39363;BME280;25088;43.238;23.110;2022-12-07T06:46:45;96395.91;;;5.23;100.00
39363;BME280;25088;43.238;23.110;2022-12-07T06:49:10;96396.88;;;5.29;100.00
39363;BME280;25088;43.238;23.110;2022-12-07T06:51:37;96396.41;;;5.32;100.00
39363;BME280;25088;43.238;23.110;2022-12-07T06:54:07;96383.63;;;5.39;100.00
39363;BME280;25088;43.238;23.110;2022-12-07T06:56:32;96377.00;;;5.35;100.00
39363;BME280;25088;43.238;23.110;2022-12-07T06:58:58;96387.56;;;5.43;100.00
39363;BME280;25088;43.238;23.110;2022-12-07T07:01:23;96389.09;;;5.51;100.00
39363;BME280;25088;43.238;23.110;2022-12-07T07:03:49;96381.59;;;5.53;100.00
39363;BME280;25088;43.238;23.110;2022-12-07T07:06:15;96378.91;;;5.53;100.00
39363;BME280;25088;43.238;23.110;2022-12-07T07:08:41;96380.78;;;5.52;100.00
39363;BME280;25088;43.238;23.110;2022-12-07T07:11:08;96359.19;;;5.45;100.00
39363;BME280;25088;43.238;23.110;2022-12-07T07:13:34;96375.16;;;5.84;100.00
39363;BME280;25088;43.238;23.110;2022-12-07T07:15:59;96356.91;;;5.91;100.00
39363;BME280;25088;43.238;23.110;2022-12-07T07:18:25;96369.84;;;6.07;100.00
39363;BME280;25088;43.238;23.110;2022-12-07T07:20:51;96367.34;;;6.06;100.00
39363;BME280;25088;43.238;23.110;2022-12-07T07:23:18;96373.84;;;6.16;100.00
39363;BME280;25088;43.238;23.110;2022-12-07T07:25:44;96370.69;;;6.19;100.00
39363;BME280;25088;43.238;23.110;2022-12-07T07:28:10;96365.97;;;6.15;100.00
39363;BME280;25088;43.238;23.110;2022-12-07T07:30:36;96336.28;;;5.90;100.00
39363;BME280;25088;43.238;23.110;2022-12-07T07:33:03;96368.81;;;5.90;100.00
39363;BME280;25088;43.238;23.110;2022-12-07T07:35:30;96373.31;;;5.96;100.00
39363;BME280;25088;43.238;23.110;2022-12-07T07:37:56;96364.97;;;5.98;100.00
39363;BME280;25088;43.238;23.110;2022-12-07T07:40:22;96371.38;;;6.03;100.00
39363;BME280;25088;43.238;23.110;2022-12-07T07:42:49;96380.56;;;6.02;100.00
39363;BME280;25088;43.238;23.110;2022-12-07T07:45:15;96367.81;;;5.73;100.00
39363;BME280;25088;43.238;23.110;2022-12-07T07:47:40;96368.09;;;5.83;100.00
39363;BME280;25088;43.238;23.110;2022-12-07T07:50:06;96378.31;;;5.81;100.00
39363;BME280;25088;43.238;23.110;2022-12-07T07:52:32;96371.75;;;5.88;100.00
39363;BME280;25088;43.238;23.110;2022-12-07T07:54:57;96374.44;;;6.07;100.00
39363;BME280;25088;43.238;23.110;2022-12-07T07:57:23;96370.44;;;6.21;100.00
39363;BME280;25088;43.238;23.110;2022-12-07T07:59:48;96372.47;;;6.26;100.00
39363;BME280;25088;43.238;23.110;2022-12-07T08:02:16;96365.38;;;6.13;100.00
39363;BME280;25088;43.238;23.110;2022-12-07T08:04:42;96370.69;;;6.19;100.00
39363;BME280;25088;43.238;23.110;2022-12-07T08:07:08;96339.56;;;6.10;100.00
39363;BME280;25088;43.238;23.110;2022-12-07T08:09:33;96369.19;;;6.35;100.00
39363;BME280;25088;43.238;23.110;2022-12-07T08:11:59;96368.13;;;6.36;100.00
39363;BME280;25088;43.238;23.110;2022-12-07T08:14:24;96371.13;;;6.58;100.00
39363;BME280;25088;43.238;23.110;2022-12-07T08:16:50;96367.09;;;6.61;100.00
39363;BME280;25088;43.238;23.110;2022-12-07T08:19:16;96341.16;;;6.53;100.00
39363;BME280;25088;43.238;23.110;2022-12-07T08:21:41;96364.38;;;6.61;100.00
39363;BME280;25088;43.238;23.110;2022-12-07T08:24:07;96375.25;;;6.61;100.00
39363;BME280;25088;43.238;23.110;2022-12-07T08:26:33;96367.69;;;6.51;100.00
39363;BME280;25088;43.238;23.110;2022-12-07T08:28:59;96383.88;;;6.69;100.00
39363;BME280;25088;43.238;23.110;2022-12-07T08:31:24;96364.66;;;6.83;100.00
39363;BME280;25088;43.238;23.110;2022-12-07T08:33:50;96371.59;;;7.02;100.00
39363;BME280;25088;43.238;23.110;2022-12-07T08:36:16;96376.69;;;6.98;100.00
39363;BME280;25088;43.238;23.110;2022-12-07T08:38:42;96366.19;;;7.02;100.00
39363;BME280;25088;43.238;23.110;2022-12-07T08:41:08;96369.00;;;7.07;100.00
39363;BME280;25088;43.238;23.110;2022-12-07T08:43:34;96366.19;;;7.02;100.00
39363;BME280;25088;43.238;23.110;2022-12-07T08:46:09;96355.44;;;7.07;100.00
39363;BME280;25088;43.238;23.110;2022-12-07T08:48:43;96362.41;;;7.03;100.00
39363;BME280;25088;43.238;23.110;2022-12-07T08:51:10;96345.16;;;7.09;100.00
39363;BME280;25088;43.238;23.110;2022-12-07T08:53:37;96356.47;;;7.18;100.00
39363;BME280;25088;43.238;23.110;2022-12-07T08:56:04;96353.75;;;7.18;100.00
39363;BME280;25088;43.238;23.110;2022-12-07T08:58:30;96336.03;;;7.27;100.00
39363;BME280;25088;43.238;23.110;2022-12-07T09:00:55;96342.50;;;7.38;100.00
39363;BME280;25088;43.238;23.110;2022-12-07T09:03:21;96334.56;;;7.48;100.00
39363;BME280;25088;43.238;23.110;2022-12-07T09:05:46;96331.13;;;7.53;100.00
39363;BME280;25088;43.238;23.110;2022-12-07T09:08:12;96322.47;;;7.56;100.00
39363;BME280;25088;43.238;23.110;2022-12-07T09:10:37;96313.84;;;7.59;100.00
39363;BME280;25088;43.238;23.110;2022-12-07T09:13:03;96323.63;;;7.71;100.00
39363;BME280;25088;43.238;23.110;2022-12-07T09:15:29;96313.81;;;7.70;100.00
39363;BME280;25088;43.238;23.110;2022-12-07T09:17:55;96317.69;;;7.74;100.00
39363;BME280;25088;43.238;23.110;2022-12-07T09:20:20;96311.06;;;7.82;100.00
39363;BME280;25088;43.238;23.110;2022-12-07T09:22:46;96302.00;;;7.93;100.00
39363;BME280;25088;43.238;23.110;2022-12-07T09:25:11;96294.38;;;8.07;100.00
39363;BME280;25088;43.238;23.110;2022-12-07T09:27:37;96274.53;;;8.07;100.00
39363;BME280;25088;43.238;23.110;2022-12-07T09:30:04;96281.78;;;8.18;100.00
39363;BME280;25088;43.238;23.110;2022-12-07T09:32:29;96279.31;;;8.33;100.00
39363;BME280;25088;43.238;23.110;2022-12-07T09:34:55;96277.50;;;8.39;100.00
39363;BME280;25088;43.238;23.110;2022-12-07T09:37:21;96283.38;;;8.47;100.00
39363;BME280;25088;43.238;23.110;2022-12-07T09:39:46;96279.47;;;8.60;100.00
39363;BME280;25088;43.238;23.110;2022-12-07T09:44:46;96277.44;;;8.89;100.00
39363;BME280;25088;43.238;23.110;2022-12-07T09:47:12;96275.69;;;9.00;99.64
39363;BME280;25088;43.238;23.110;2022-12-07T09:49:37;96276.06;;;9.09;99.84
39363;BME280;25088;43.238;23.110;2022-12-07T09:54:48;96270.94;;;9.34;99.96
39363;BME280;25088;43.238;23.110;2022-12-07T09:57:15;96266.63;;;9.38;100.00
39363;BME280;25088;43.238;23.110;2022-12-07T09:59:41;96267.19;;;9.62;98.33
39363;BME280;25088;43.238;23.110;2022-12-07T10:02:32;96266.09;;;9.63;95.67
39363;BME280;25088;43.238;23.110;2022-12-07T10:05:00;96260.03;;;9.83;95.20
39363;BME280;25088;43.238;23.110;2022-12-07T10:07:26;96257.00;;;9.79;94.05
39363;BME280;25088;43.238;23.110;2022-12-07T10:09:51;96238.91;;;9.95;93.61
39363;BME280;25088;43.238;23.110;2022-12-07T10:12:17;96251.91;;;10.15;91.32
39363;BME280;25088;43.238;23.110;2022-12-07T10:15:03;96247.19;;;10.05;90.83
39363;BME280;25088;43.238;23.110;2022-12-07T10:23:01;96248.81;;;9.79;91.00
39363;BME280;25088;43.238;23.110;2022-12-07T10:25:33;96246.31;;;9.73;92.74
39363;BME280;25088;43.238;23.110;2022-12-07T10:30:27;96244.63;;;9.67;94.48
39363;BME280;25088;43.238;23.110;2022-12-07T10:32:53;96246.53;;;9.44;95.81
39363;BME280;25088;43.238;23.110;2022-12-07T10:35:20;96235.97;;;9.48;96.98
39363;BME280;25088;43.238;23.110;2022-12-07T10:37:47;96239.50;;;9.48;97.10
39363;BME280;25088;43.238;23.110;2022-12-07T10:40:34;96237.09;;;9.25;97.78
39363;BME280;25088;43.238;23.110;2022-12-07T10:45:30;96214.47;;;8.80;100.00
39363;BME280;25088;43.238;23.110;2022-12-07T10:54:18;96229.03;;;8.91;100.00
39363;BME280;25088;43.238;23.110;2022-12-07T10:59:20;96213.34;;;8.60;100.00
39363;BME280;25088;43.238;23.110;2022-12-07T11:14:20;96183.63;;;8.97;100.00
39363;BME280;25088;43.238;23.110;2022-12-07T11:16:59;96173.19;;;8.89;100.00
39363;BME280;25088;43.238;23.110;2022-12-07T11:20:00;96183.41;;;9.25;100.00
39363;BME280;25088;43.238;23.110;2022-12-07T11:22:52;96172.06;;;9.33;100.00
39363;BME280;25088;43.238;23.110;2022-12-07T11:33:46;96185.25;;;9.20;100.00
39363;BME280;25088;43.238;23.110;2022-12-07T11:36:37;96168.72;;;9.26;100.00
39363;BME280;25088;43.238;23.110;2022-12-07T11:39:37;96158.03;;;9.47;99.42
39363;BME280;25088;43.238;23.110;2022-12-07T11:42:22;96140.50;;;9.65;97.22
39363;BME280;25088;43.238;23.110;2022-12-07T11:44:53;96159.03;;;9.68;96.66
39363;BME280;25088;43.238;23.110;2022-12-07T12:03:51;96148.16;;;9.41;98.97
39363;BME280;25088;43.238;23.110;2022-12-07T12:06:19;96149.22;;;9.40;98.83
39363;BME280;25088;43.238;23.110;2022-12-07T12:09:18;96128.97;;;9.57;97.16
39363;BME280;25088;43.238;23.110;2022-12-07T12:14:48;96121.84;;;9.89;97.03
39363;BME280;25088;43.238;23.110;2022-12-07T12:22:58;96122.25;;;10.40;91.59
39363;BME280;25088;43.238;23.110;2022-12-07T12:25:31;96118.53;;;10.61;91.48
39363;BME280;25088;43.238;23.110;2022-12-07T12:28:00;96107.84;;;11.73;84.27
39363;BME280;25088;43.238;23.110;2022-12-07T12:30:39;96102.66;;;13.03;75.83
39363;BME280;25088;43.238;23.110;2022-12-07T12:33:27;96099.16;;;13.41;71.06
39363;BME280;25088;43.238;23.110;2022-12-07T12:49:35;96123.88;;;11.13;82.17
39363;BME280;25088;43.238;23.110;2022-12-07T12:54:38;96122.47;;;10.91;85.56
39363;BME280;25088;43.238;23.110;2022-12-07T12:57:25;96127.34;;;10.88;85.54
39363;BME280;25088;43.238;23.110;2022-12-07T13:02:37;96117.78;;;10.81;86.31
39363;BME280;25088;43.238;23.110;2022-12-07T13:05:17;96130.31;;;10.72;86.82
39363;BME280;25088;43.238;23.110;2022-12-07T13:10:39;96106.25;;;10.16;90.18
39363;BME280;25088;43.238;23.110;2022-12-07T13:15:46;96120.56;;;10.91;86.77
39363;BME280;25088;43.238;23.110;2022-12-07T13:29:09;96159.25;;;9.34;97.68
39363;BME280;25088;43.238;23.110;2022-12-07T13:31:38;96164.84;;;8.95;100.00
39363;BME280;25088;43.238;23.110;2022-12-07T13:34:26;96164.81;;;8.73;100.00
39363;BME280;25088;43.238;23.110;2022-12-07T13:36:51;96147.16;;;8.54;100.00
39363;BME280;25088;43.238;23.110;2022-12-07T13:39:19;96180.88;;;8.53;100.00
39363;BME280;25088;43.238;23.110;2022-12-07T13:41:55;96175.94;;;8.50;100.00
39363;BME280;25088;43.238;23.110;2022-12-07T13:44:23;96175.38;;;8.31;100.00
39363;BME280;25088;43.238;23.110;2022-12-07T13:50:00;96176.16;;;7.93;100.00
39363;BME280;25088;43.238;23.110;2022-12-07T13:52:28;96162.56;;;7.76;100.00
39363;BME280;25088;43.238;23.110;2022-12-07T13:54:59;96164.88;;;7.67;100.00
39363;BME280;25088;43.238;23.110;2022-12-07T13:57:27;96160.81;;;7.70;100.00
39363;BME280;25088;43.238;23.110;2022-12-07T13:59:54;96149.38;;;7.68;100.00
39363;BME280;25088;43.238;23.110;2022-12-07T14:02:23;96177.00;;;7.76;100.00
39363;BME280;25088;43.238;23.110;2022-12-07T14:04:50;96168.19;;;7.86;100.00
39363;BME280;25088;43.238;23.110;2022-12-07T14:07:28;96163.97;;;7.78;100.00
39363;BME280;25088;43.238;23.110;2022-12-07T14:10:00;96158.94;;;7.87;100.00
39363;BME280;25088;43.238;23.110;2022-12-07T14:12:28;96164.63;;;7.86;100.00
39363;BME280;25088;43.238;23.110;2022-12-07T14:14:55;96156.56;;;7.91;100.00
39363;BME280;25088;43.238;23.110;2022-12-07T14:17:25;96162.41;;;7.83;100.00
39363;BME280;25088;43.238;23.110;2022-12-07T14:19:59;96162.16;;;7.67;100.00
39363;BME280;25088;43.238;23.110;2022-12-07T14:24:57;96156.03;;;7.43;100.00
39363;BME280;25088;43.238;23.110;2022-12-07T14:27:24;96181.66;;;7.47;100.00
39363;BME280;25088;43.238;23.110;2022-12-07T14:29:55;96185.09;;;7.43;100.00
39363;BME280;25088;43.238;23.110;2022-12-07T14:32:25;96187.72;;;7.09;100.00
39363;BME280;25088;43.238;23.110;2022-12-07T14:34:59;96187.97;;;7.08;100.00
39363;BME280;25088;43.238;23.110;2022-12-07T14:37:26;96184.53;;;7.12;100.00
39363;BME280;25088;43.238;23.110;2022-12-07T14:39:52;96178.94;;;7.19;100.00
39363;BME280;25088;43.238;23.110;2022-12-07T14:42:18;96154.59;;;6.95;100.00
39363;BME280;25088;43.238;23.110;2022-12-07T14:44:44;96177.47;;;7.11;100.00
39363;BME280;25088;43.238;23.110;2022-12-07T14:47:10;96178.84;;;7.14;100.00
39363;BME280;25088;43.238;23.110;2022-12-07T14:49:37;96175.06;;;7.15;100.00
39363;BME280;25088;43.238;23.110;2022-12-07T14:52:03;96162.84;;;7.00;100.00
39363;BME280;25088;43.238;23.110;2022-12-07T14:54:31;96177.88;;;7.20;100.00
39363;BME280;25088;43.238;23.110;2022-12-07T14:56:58;96172.25;;;7.10;100.00
39363;BME280;25088;43.238;23.110;2022-12-07T14:59:23;96179.56;;;7.09;100.00
39363;BME280;25088;43.238;23.110;2022-12-07T15:01:49;96190.06;;;7.17;100.00
39363;BME280;25088;43.238;23.110;2022-12-07T15:04:15;96182.81;;;7.23;100.00
39363;BME280;25088;43.238;23.110;2022-12-07T15:06:40;96188.91;;;7.30;100.00
39363;BME280;25088;43.238;23.110;2022-12-07T15:09:10;96190.50;;;7.26;100.00
39363;BME280;25088;43.238;23.110;2022-12-07T15:11:36;96186.22;;;7.02;100.00
39363;BME280;25088;43.238;23.110;2022-12-07T15:14:01;96165.84;;;6.87;100.00